Terminal Aerodrome Forecast
Issued by NWS

Home | Current Version | Previous Version | Text Only | Print | Product List | Glossary On
Versions: 1 2 3 4 5 6 7 8 9 10 11 12 13
000
FTUS41 KBTV 271131
TAFMPV
TAF
KMPV 271131Z 2712/2812 32007KT P6SM VCSH SCT009 BKN015 OVC025
      TEMPO 2712/2714 6SM -SHRA BR BKN009
     FM271700 33008KT 6SM -SHRA BR BKN028 OVC040
     FM272200 32007KT P6SM OVC035
     FM280100 32006KT P6SM BKN035 OVC050=

USA.gov is the U.S. government's official web portal to all federal, state and local government web resources and services.